sensor_id;sensor_type;location;lat;lon;timestamp;temperature;humidity
4795;DHT22;2411;47.060;15.064;2023-04-22T00:00:27;6.20;1.00
4795;DHT22;2411;47.060;15.064;2023-04-22T00:02:54;6.40;1.00
4795;DHT22;2411;47.060;15.064;2023-04-22T00:05:23;6.30;1.00
4795;DHT22;2411;47.060;15.064;2023-04-22T00:07:51;6.20;1.00
4795;DHT22;2411;47.060;15.064;2023-04-22T00:10:18;6.30;1.00
4795;DHT22;2411;47.060;15.064;2023-04-22T00:12:45;6.30;1.00
4795;DHT22;2411;47.060;15.064;2023-04-22T00:15:13;6.10;1.00
4795;DHT22;2411;47.060;15.064;2023-04-22T00:17:40;6.10;1.00
4795;DHT22;2411;47.060;15.064;2023-04-22T00:20:09;6.00;1.00
4795;DHT22;2411;47.060;15.064;2023-04-22T00:22:37;6.10;1.00
4795;DHT22;2411;47.060;15.064;2023-04-22T00:25:05;6.10;1.00
4795;DHT22;2411;47.060;15.064;2023-04-22T00:27:32;6.10;1.00
4795;DHT22;2411;47.060;15.064;2023-04-22T00:29:59;6.10;1.00
4795;DHT22;2411;47.060;15.064;2023-04-22T00:32:27;6.20;1.00
4795;DHT22;2411;47.060;15.064;2023-04-22T00:34:54;6.00;1.00
4795;DHT22;2411;47.060;15.064;2023-04-22T00:37:23;5.90;1.00
4795;DHT22;2411;47.060;15.064;2023-04-22T00:39:51;6.00;1.00
4795;DHT22;2411;47.060;15.064;2023-04-22T00:42:18;6.10;1.00
4795;DHT22;2411;47.060;15.064;2023-04-22T00:44:47;6.10;1.00
4795;DHT22;2411;47.060;15.064;2023-04-22T00:47:18;6.00;1.00
4795;DHT22;2411;47.060;15.064;2023-04-22T00:49:45;6.00;1.00
4795;DHT22;2411;47.060;15.064;2023-04-22T00:52:15;5.90;1.00
4795;DHT22;2411;47.060;15.064;2023-04-22T00:54:42;5.80;1.00
4795;DHT22;2411;47.060;15.064;2023-04-22T00:57:10;5.70;1.00
4795;DHT22;2411;47.060;15.064;2023-04-22T00:59:38;5.80;1.00
4795;DHT22;2411;47.060;15.064;2023-04-22T01:02:05;6.00;1.00
4795;DHT22;2411;47.060;15.064;2023-04-22T01:04:33;6.00;1.00
4795;DHT22;2411;47.060;15.064;2023-04-22T01:07:01;5.90;1.00
4795;DHT22;2411;47.060;15.064;2023-04-22T01:09:28;5.70;1.00
4795;DHT22;2411;47.060;15.064;2023-04-22T01:11:56;5.60;1.00
4795;DHT22;2411;47.060;15.064;2023-04-22T01:14:24;5.30;1.00
4795;DHT22;2411;47.060;15.064;2023-04-22T01:16:52;5.20;1.00
4795;DHT22;2411;47.060;15.064;2023-04-22T01:19:22;5.10;1.00
4795;DHT22;2411;47.060;15.064;2023-04-22T01:21:50;5.10;1.00
4795;DHT22;2411;47.060;15.064;2023-04-22T01:24:18;5.30;1.00
4795;DHT22;2411;47.060;15.064;2023-04-22T01:26:47;5.10;1.00
4795;DHT22;2411;47.060;15.064;2023-04-22T01:29:14;5.10;1.00
4795;DHT22;2411;47.060;15.064;2023-04-22T01:31:41;5.10;1.00
4795;DHT22;2411;47.060;15.064;2023-04-22T01:34:10;5.30;1.00
4795;DHT22;2411;47.060;15.064;2023-04-22T01:36:37;5.20;1.00
4795;DHT22;2411;47.060;15.064;2023-04-22T01:39:04;5.20;1.00
4795;DHT22;2411;47.060;15.064;2023-04-22T01:41:33;5.00;1.00
4795;DHT22;2411;47.060;15.064;2023-04-22T01:44:02;4.90;1.00
4795;DHT22;2411;47.060;15.064;2023-04-22T01:46:32;4.80;1.00
4795;DHT22;2411;47.060;15.064;2023-04-22T01:48:59;5.00;1.00
4795;DHT22;2411;47.060;15.064;2023-04-22T01:51:27;5.10;1.00
4795;DHT22;2411;47.060;15.064;2023-04-22T01:53:54;5.00;1.00
4795;DHT22;2411;47.060;15.064;2023-04-22T01:56:21;5.00;1.00
4795;DHT22;2411;47.060;15.064;2023-04-22T01:58:49;5.00;1.00
4795;DHT22;2411;47.060;15.064;2023-04-22T02:01:16;5.10;1.00
4795;DHT22;2411;47.060;15.064;2023-04-22T02:03:43;5.20;1.00
4795;DHT22;2411;47.060;15.064;2023-04-22T02:06:11;5.30;1.00
4795;DHT22;2411;47.060;15.064;2023-04-22T02:08:38;5.40;1.00
4795;DHT22;2411;47.060;15.064;2023-04-22T02:11:06;5.50;1.00
4795;DHT22;2411;47.060;15.064;2023-04-22T02:13:37;5.30;1.00
4795;DHT22;2411;47.060;15.064;2023-04-22T02:16:05;5.30;1.00
4795;DHT22;2411;47.060;15.064;2023-04-22T02:18:32;5.20;1.00
4795;DHT22;2411;47.060;15.064;2023-04-22T02:21:00;4.90;1.00
4795;DHT22;2411;47.060;15.064;2023-04-22T02:23:28;4.90;1.00
4795;DHT22;2411;47.060;15.064;2023-04-22T02:25:55;5.00;1.00
4795;DHT22;2411;47.060;15.064;2023-04-22T02:28:23;5.00;1.00
4795;DHT22;2411;47.060;15.064;2023-04-22T02:30:50;5.00;1.00
4795;DHT22;2411;47.060;15.064;2023-04-22T02:33:17;5.00;1.00
4795;DHT22;2411;47.060;15.064;2023-04-22T02:35:44;5.20;1.00
4795;DHT22;2411;47.060;15.064;2023-04-22T02:38:12;5.20;1.00
4795;DHT22;2411;47.060;15.064;2023-04-22T02:40:39;5.20;1.00
4795;DHT22;2411;47.060;15.064;2023-04-22T02:43:06;5.00;1.00
4795;DHT22;2411;47.060;15.064;2023-04-22T02:45:34;4.70;1.00
4795;DHT22;2411;47.060;15.064;2023-04-22T02:48:01;4.60;1.00
4795;DHT22;2411;47.060;15.064;2023-04-22T02:50:28;4.60;1.00
4795;DHT22;2411;47.060;15.064;2023-04-22T02:52:56;4.70;1.00
4795;DHT22;2411;47.060;15.064;2023-04-22T02:55:23;4.70;1.00
4795;DHT22;2411;47.060;15.064;2023-04-22T02:57:50;4.70;1.00
4795;DHT22;2411;47.060;15.064;2023-04-22T03:00:18;4.80;1.00
4795;DHT22;2411;47.060;15.064;2023-04-22T03:02:45;4.50;1.00
4795;DHT22;2411;47.060;15.064;2023-04-22T03:05:14;4.60;1.00
4795;DHT22;2411;47.060;15.064;2023-04-22T03:07:41;4.60;1.00
4795;DHT22;2411;47.060;15.064;2023-04-22T03:10:08;4.40;1.00
4795;DHT22;2411;47.060;15.064;2023-04-22T03:12:36;4.40;1.00
4795;DHT22;2411;47.060;15.064;2023-04-22T03:15:03;4.50;1.00
4795;DHT22;2411;47.060;15.064;2023-04-22T03:17:31;4.60;1.00
4795;DHT22;2411;47.060;15.064;2023-04-22T03:19:58;4.70;1.00
4795;DHT22;2411;47.060;15.064;2023-04-22T03:22:25;4.40;1.00
4795;DHT22;2411;47.060;15.064;2023-04-22T03:24:53;4.40;1.00
4795;DHT22;2411;47.060;15.064;2023-04-22T03:27:20;4.40;1.00
4795;DHT22;2411;47.060;15.064;2023-04-22T03:29:47;4.30;1.00
4795;DHT22;2411;47.060;15.064;2023-04-22T03:32:14;4.50;1.00
4795;DHT22;2411;47.060;15.064;2023-04-22T03:34:42;4.40;1.00
4795;DHT22;2411;47.060;15.064;2023-04-22T03:37:09;4.30;1.00
4795;DHT22;2411;47.060;15.064;2023-04-22T03:39:36;4.30;1.00
4795;DHT22;2411;47.060;15.064;2023-04-22T03:42:04;4.50;1.00
4795;DHT22;2411;47.060;15.064;2023-04-22T03:44:31;4.40;1.00
4795;DHT22;2411;47.060;15.064;2023-04-22T03:46:59;4.40;1.00
4795;DHT22;2411;47.060;15.064;2023-04-22T03:49:26;4.20;1.00
4795;DHT22;2411;47.060;15.064;2023-04-22T03:51:54;4.20;1.00
4795;DHT22;2411;47.060;15.064;2023-04-22T03:54:22;4.10;1.00
4795;DHT22;2411;47.060;15.064;2023-04-22T03:56:50;4.40;1.00
4795;DHT22;2411;47.060;15.064;2023-04-22T03:59:17;4.30;1.00
4795;DHT22;2411;47.060;15.064;2023-04-22T04:01:50;4.10;1.00
4795;DHT22;2411;47.060;15.064;2023-04-22T04:04:17;4.40;1.00
4795;DHT22;2411;47.060;15.064;2023-04-22T04:06:45;4.50;1.00
4795;DHT22;2411;47.060;15.064;2023-04-22T04:09:12;4.30;1.00
4795;DHT22;2411;47.060;15.064;2023-04-22T04:11:40;4.40;1.00
4795;DHT22;2411;47.060;15.064;2023-04-22T04:14:07;4.40;1.00
4795;DHT22;2411;47.060;15.064;2023-04-22T04:16:35;4.40;1.00
4795;DHT22;2411;47.060;15.064;2023-04-22T04:19:03;4.60;1.00
4795;DHT22;2411;47.060;15.064;2023-04-22T04:21:30;4.60;1.00
4795;DHT22;2411;47.060;15.064;2023-04-22T04:23:59;4.30;1.00
4795;DHT22;2411;47.060;15.064;2023-04-22T04:26:26;4.40;1.00
4795;DHT22;2411;47.060;15.064;2023-04-22T04:28:54;4.60;1.00
4795;DHT22;2411;47.060;15.064;2023-04-22T04:31:21;4.70;1.00
4795;DHT22;2411;47.060;15.064;2023-04-22T04:33:50;4.50;1.00
4795;DHT22;2411;47.060;15.064;2023-04-22T04:36:18;4.50;1.00
4795;DHT22;2411;47.060;15.064;2023-04-22T04:38:46;4.70;1.00
4795;DHT22;2411;47.060;15.064;2023-04-22T04:41:13;4.80;1.00
4795;DHT22;2411;47.060;15.064;2023-04-22T04:43:41;5.00;1.00
4795;DHT22;2411;47.060;15.064;2023-04-22T04:46:13;4.70;1.00
4795;DHT22;2411;47.060;15.064;2023-04-22T04:48:40;4.80;1.00
4795;DHT22;2411;47.060;15.064;2023-04-22T04:51:08;4.80;1.00
4795;DHT22;2411;47.060;15.064;2023-04-22T04:53:36;5.00;1.00
4795;DHT22;2411;47.060;15.064;2023-04-22T04:56:03;5.10;1.00
4795;DHT22;2411;47.060;15.064;2023-04-22T04:58:30;5.30;1.00
4795;DHT22;2411;47.060;15.064;2023-04-22T05:00:58;5.40;1.00
4795;DHT22;2411;47.060;15.064;2023-04-22T05:03:25;5.60;1.00
4795;DHT22;2411;47.060;15.064;2023-04-22T05:05:53;5.60;1.00
4795;DHT22;2411;47.060;15.064;2023-04-22T05:08:20;5.60;1.00
4795;DHT22;2411;47.060;15.064;2023-04-22T05:10:48;5.60;1.00
4795;DHT22;2411;47.060;15.064;2023-04-22T05:13:15;5.70;1.00
4795;DHT22;2411;47.060;15.064;2023-04-22T05:15:43;5.80;1.00
4795;DHT22;2411;47.060;15.064;2023-04-22T05:18:10;5.90;1.00
4795;DHT22;2411;47.060;15.064;2023-04-22T05:20:37;6.10;1.00
4795;DHT22;2411;47.060;15.064;2023-04-22T05:23:05;6.20;1.00
4795;DHT22;2411;47.060;15.064;2023-04-22T05:25:32;6.30;1.00
4795;DHT22;2411;47.060;15.064;2023-04-22T05:27:59;6.40;1.00
4795;DHT22;2411;47.060;15.064;2023-04-22T05:30:27;6.60;1.00
4795;DHT22;2411;47.060;15.064;2023-04-22T05:32:54;6.70;1.00
4795;DHT22;2411;47.060;15.064;2023-04-22T05:35:21;6.80;1.00
4795;DHT22;2411;47.060;15.064;2023-04-22T05:37:49;7.00;1.00
4795;DHT22;2411;47.060;15.064;2023-04-22T05:40:16;7.20;1.00
4795;DHT22;2411;47.060;15.064;2023-04-22T05:42:43;7.30;1.00
4795;DHT22;2411;47.060;15.064;2023-04-22T05:45:11;7.50;1.00
4795;DHT22;2411;47.060;15.064;2023-04-22T05:47:38;7.60;1.00
4795;DHT22;2411;47.060;15.064;2023-04-22T05:50:06;7.80;1.00
4795;DHT22;2411;47.060;15.064;2023-04-22T05:52:34;7.90;1.00
4795;DHT22;2411;47.060;15.064;2023-04-22T05:55:01;8.10;1.00
4795;DHT22;2411;47.060;15.064;2023-04-22T05:57:30;8.30;1.00
4795;DHT22;2411;47.060;15.064;2023-04-22T05:59:59;8.40;1.00
4795;DHT22;2411;47.060;15.064;2023-04-22T06:02:26;8.60;1.00
4795;DHT22;2411;47.060;15.064;2023-04-22T06:04:54;8.60;1.00
4795;DHT22;2411;47.060;15.064;2023-04-22T06:07:22;8.80;1.00
4795;DHT22;2411;47.060;15.064;2023-04-22T06:09:52;8.90;1.00
4795;DHT22;2411;47.060;15.064;2023-04-22T06:12:32;9.00;1.00
4795;DHT22;2411;47.060;15.064;2023-04-22T06:14:59;9.20;1.00
4795;DHT22;2411;47.060;15.064;2023-04-22T06:17:27;9.30;1.00
4795;DHT22;2411;47.060;15.064;2023-04-22T06:19:54;9.40;1.00
4795;DHT22;2411;47.060;15.064;2023-04-22T06:22:21;9.50;1.00
4795;DHT22;2411;47.060;15.064;2023-04-22T06:24:49;9.70;1.00
4795;DHT22;2411;47.060;15.064;2023-04-22T06:27:16;9.90;1.00
4795;DHT22;2411;47.060;15.064;2023-04-22T06:29:43;9.90;1.00
4795;DHT22;2411;47.060;15.064;2023-04-22T06:32:11;10.10;1.00
4795;DHT22;2411;47.060;15.064;2023-04-22T06:34:38;10.10;1.00
4795;DHT22;2411;47.060;15.064;2023-04-22T06:37:05;10.40;1.00
4795;DHT22;2411;47.060;15.064;2023-04-22T06:39:33;10.50;1.00
4795;DHT22;2411;47.060;15.064;2023-04-22T06:42:00;10.60;1.00
4795;DHT22;2411;47.060;15.064;2023-04-22T06:44:28;10.70;1.00
4795;DHT22;2411;47.060;15.064;2023-04-22T06:46:55;10.70;1.00
4795;DHT22;2411;47.060;15.064;2023-04-22T06:49:24;10.90;1.00
4795;DHT22;2411;47.060;15.064;2023-04-22T06:51:51;10.90;1.00
4795;DHT22;2411;47.060;15.064;2023-04-22T06:54:19;11.20;1.00
4795;DHT22;2411;47.060;15.064;2023-04-22T06:56:46;11.20;1.00
4795;DHT22;2411;47.060;15.064;2023-04-22T06:59:13;11.40;1.00
4795;DHT22;2411;47.060;15.064;2023-04-22T07:01:41;11.40;1.00
4795;DHT22;2411;47.060;15.064;2023-04-22T07:04:08;11.60;1.00
4795;DHT22;2411;47.060;15.064;2023-04-22T07:06:36;11.70;1.00
4795;DHT22;2411;47.060;15.064;2023-04-22T07:09:03;11.70;1.00
4795;DHT22;2411;47.060;15.064;2023-04-22T07:11:30;11.80;1.00
4795;DHT22;2411;47.060;15.064;2023-04-22T07:13:58;12.00;1.00
4795;DHT22;2411;47.060;15.064;2023-04-22T07:16:25;12.10;1.00
4795;DHT22;2411;47.060;15.064;2023-04-22T07:18:54;12.10;1.00
4795;DHT22;2411;47.060;15.064;2023-04-22T07:21:21;12.20;1.00
4795;DHT22;2411;47.060;15.064;2023-04-22T07:23:48;12.20;1.00
4795;DHT22;2411;47.060;15.064;2023-04-22T07:26:16;12.40;1.00
4795;DHT22;2411;47.060;15.064;2023-04-22T07:28:45;12.60;1.00
4795;DHT22;2411;47.060;15.064;2023-04-22T07:31:12;12.60;1.00
4795;DHT22;2411;47.060;15.064;2023-04-22T07:33:39;12.80;1.00
4795;DHT22;2411;47.060;15.064;2023-04-22T07:36:07;13.00;1.00
4795;DHT22;2411;47.060;15.064;2023-04-22T07:38:34;12.70;1.00
4795;DHT22;2411;47.060;15.064;2023-04-22T07:41:02;13.00;1.00
4795;DHT22;2411;47.060;15.064;2023-04-22T07:43:29;13.30;1.00
4795;DHT22;2411;47.060;15.064;2023-04-22T07:45:56;13.60;1.00
4795;DHT22;2411;47.060;15.064;2023-04-22T07:48:24;13.70;1.00
4795;DHT22;2411;47.060;15.064;2023-04-22T07:50:51;13.70;1.00
4795;DHT22;2411;47.060;15.064;2023-04-22T07:53:19;13.70;1.00
4795;DHT22;2411;47.060;15.064;2023-04-22T07:55:46;13.70;1.00
4795;DHT22;2411;47.060;15.064;2023-04-22T07:58:16;14.00;1.00
4795;DHT22;2411;47.060;15.064;2023-04-22T08:00:43;14.20;1.00
4795;DHT22;2411;47.060;15.064;2023-04-22T08:03:10;13.70;1.00
4795;DHT22;2411;47.060;15.064;2023-04-22T08:05:38;13.90;1.00
4795;DHT22;2411;47.060;15.064;2023-04-22T08:08:06;14.00;1.00
4795;DHT22;2411;47.060;15.064;2023-04-22T08:10:34;14.00;1.00
4795;DHT22;2411;47.060;15.064;2023-04-22T08:13:01;14.50;1.00
4795;DHT22;2411;47.060;15.064;2023-04-22T08:15:29;14.40;1.00
4795;DHT22;2411;47.060;15.064;2023-04-22T08:17:56;14.20;1.00
4795;DHT22;2411;47.060;15.064;2023-04-22T08:20:24;14.80;1.00
4795;DHT22;2411;47.060;15.064;2023-04-22T08:22:51;14.80;1.00
4795;DHT22;2411;47.060;15.064;2023-04-22T08:25:23;14.50;1.00
4795;DHT22;2411;47.060;15.064;2023-04-22T08:27:50;15.10;1.00
4795;DHT22;2411;47.060;15.064;2023-04-22T08:30:18;14.90;1.00
4795;DHT22;2411;47.060;15.064;2023-04-22T08:32:45;15.40;1.00
4795;DHT22;2411;47.060;15.064;2023-04-22T08:35:13;15.20;1.00
4795;DHT22;2411;47.060;15.064;2023-04-22T08:37:41;15.10;1.00
4795;DHT22;2411;47.060;15.064;2023-04-22T08:40:08;15.20;1.00
4795;DHT22;2411;47.060;15.064;2023-04-22T08:42:36;15.00;1.00
4795;DHT22;2411;47.060;15.064;2023-04-22T08:45:04;15.40;1.00
4795;DHT22;2411;47.060;15.064;2023-04-22T08:47:33;15.50;1.00
4795;DHT22;2411;47.060;15.064;2023-04-22T08:50:02;15.50;1.00
4795;DHT22;2411;47.060;15.064;2023-04-22T08:52:30;15.70;1.00
4795;DHT22;2411;47.060;15.064;2023-04-22T08:54:57;15.40;1.00
4795;DHT22;2411;47.060;15.064;2023-04-22T08:57:25;15.50;1.00
4795;DHT22;2411;47.060;15.064;2023-04-22T08:59:52;15.60;1.00
4795;DHT22;2411;47.060;15.064;2023-04-22T09:02:23;15.60;1.00
4795;DHT22;2411;47.060;15.064;2023-04-22T09:04:52;16.10;1.00
4795;DHT22;2411;47.060;15.064;2023-04-22T09:07:30;15.80;1.00
4795;DHT22;2411;47.060;15.064;2023-04-22T09:09:58;15.90;1.00
4795;DHT22;2411;47.060;15.064;2023-04-22T09:12:25;16.00;1.00
4795;DHT22;2411;47.060;15.064;2023-04-22T09:14:54;16.20;1.00
4795;DHT22;2411;47.060;15.064;2023-04-22T09:17:32;16.30;1.00
4795;DHT22;2411;47.060;15.064;2023-04-22T09:20:01;16.10;1.00
4795;DHT22;2411;47.060;15.064;2023-04-22T09:22:45;16.20;1.00
4795;DHT22;2411;47.060;15.064;2023-04-22T09:25:16;16.40;1.00
4795;DHT22;2411;47.060;15.064;2023-04-22T09:27:48;16.60;1.00
4795;DHT22;2411;47.060;15.064;2023-04-22T09:30:18;16.60;1.00
4795;DHT22;2411;47.060;15.064;2023-04-22T09:32:53;16.30;1.00
4795;DHT22;2411;47.060;15.064;2023-04-22T09:35:31;16.60;1.00
4795;DHT22;2411;47.060;15.064;2023-04-22T09:38:01;16.70;1.00
4795;DHT22;2411;47.060;15.064;2023-04-22T09:40:30;16.50;1.00
4795;DHT22;2411;47.060;15.064;2023-04-22T09:43:01;16.80;1.00
4795;DHT22;2411;47.060;15.064;2023-04-22T09:45:32;16.70;1.00
4795;DHT22;2411;47.060;15.064;2023-04-22T09:48:07;17.00;1.00
4795;DHT22;2411;47.060;15.064;2023-04-22T09:50:42;17.10;1.00
4795;DHT22;2411;47.060;15.064;2023-04-22T09:53:13;17.30;1.00
4795;DHT22;2411;47.060;15.064;2023-04-22T09:55:44;16.90;1.00
4795;DHT22;2411;47.060;15.064;2023-04-22T09:58:13;16.90;1.00
4795;DHT22;2411;47.060;15.064;2023-04-22T10:03:10;17.40;1.00
4795;DHT22;2411;47.060;15.064;2023-04-22T10:05:38;17.40;1.00
4795;DHT22;2411;47.060;15.064;2023-04-22T10:08:07;17.50;1.00
4795;DHT22;2411;47.060;15.064;2023-04-22T10:10:36;17.40;1.00
4795;DHT22;2411;47.060;15.064;2023-04-22T10:13:04;17.60;1.00
4795;DHT22;2411;47.060;15.064;2023-04-22T10:15:38;17.30;1.00
4795;DHT22;2411;47.060;15.064;2023-04-22T10:18:12;17.30;1.00
4795;DHT22;2411;47.060;15.064;2023-04-22T10:20:43;17.60;1.00
4795;DHT22;2411;47.060;15.064;2023-04-22T10:23:14;17.60;1.00
4795;DHT22;2411;47.060;15.064;2023-04-22T10:25:47;17.80;1.00
4795;DHT22;2411;47.060;15.064;2023-04-22T10:28:16;17.90;1.00
4795;DHT22;2411;47.060;15.064;2023-04-22T10:30:43;17.80;1.00
4795;DHT22;2411;47.060;15.064;2023-04-22T10:41:30;17.80;1.00
4795;DHT22;2411;47.060;15.064;2023-04-22T10:43:59;18.00;1.00
4795;DHT22;2411;47.060;15.064;2023-04-22T10:49:19;18.10;1.00
4795;DHT22;2411;47.060;15.064;2023-04-22T10:51:51;18.00;1.00
4795;DHT22;2411;47.060;15.064;2023-04-22T10:57:08;18.30;1.00
4795;DHT22;2411;47.060;15.064;2023-04-22T11:02:14;18.60;1.00
4795;DHT22;2411;47.060;15.064;2023-04-22T11:04:42;18.50;1.00
4795;DHT22;2411;47.060;15.064;2023-04-22T11:10:01;18.50;1.00
4795;DHT22;2411;47.060;15.064;2023-04-22T11:17:49;18.50;1.00
4795;DHT22;2411;47.060;15.064;2023-04-22T11:20:17;18.60;1.00
4795;DHT22;2411;47.060;15.064;2023-04-22T11:22:47;18.80;1.00
4795;DHT22;2411;47.060;15.064;2023-04-22T11:25:15;19.10;1.00
4795;DHT22;2411;47.060;15.064;2023-04-22T11:27:43;19.00;1.00
4795;DHT22;2411;47.060;15.064;2023-04-22T11:32:40;19.10;1.00
4795;DHT22;2411;47.060;15.064;2023-04-22T11:35:12;18.90;1.00
4795;DHT22;2411;47.060;15.064;2023-04-22T11:37:48;18.90;1.00
4795;DHT22;2411;47.060;15.064;2023-04-22T11:40:18;19.00;1.00
4795;DHT22;2411;47.060;15.064;2023-04-22T11:42:48;19.10;1.00
4795;DHT22;2411;47.060;15.064;2023-04-22T11:45:16;19.00;1.00
4795;DHT22;2411;47.060;15.064;2023-04-22T11:47:44;18.90;1.00
4795;DHT22;2411;47.060;15.064;2023-04-22T11:50:13;19.10;1.00
4795;DHT22;2411;47.060;15.064;2023-04-22T11:55:27;19.30;1.00
4795;DHT22;2411;47.060;15.064;2023-04-22T11:58:09;19.30;1.00
4795;DHT22;2411;47.060;15.064;2023-04-22T12:00:38;19.40;1.00
4795;DHT22;2411;47.060;15.064;2023-04-22T12:03:17;19.40;1.00
4795;DHT22;2411;47.060;15.064;2023-04-22T12:05:50;19.40;1.00
4795;DHT22;2411;47.060;15.064;2023-04-22T12:08:20;19.50;1.00
4795;DHT22;2411;47.060;15.064;2023-04-22T12:10:54;19.10;1.00
4795;DHT22;2411;47.060;15.064;2023-04-22T12:13:29;19.50;1.00
4795;DHT22;2411;47.060;15.064;2023-04-22T12:16:01;19.70;1.00
4795;DHT22;2411;47.060;15.064;2023-04-22T12:23:43;19.80;1.00
4795;DHT22;2411;47.060;15.064;2023-04-22T12:26:11;19.90;1.00
4795;DHT22;2411;47.060;15.064;2023-04-22T12:28:39;19.80;1.00
4795;DHT22;2411;47.060;15.064;2023-04-22T12:31:07;20.10;1.00
4795;DHT22;2411;47.060;15.064;2023-04-22T12:33:36;20.00;1.00
4795;DHT22;2411;47.060;15.064;2023-04-22T12:36:04;20.10;1.00
4795;DHT22;2411;47.060;15.064;2023-04-22T12:38:32;20.30;1.00
4795;DHT22;2411;47.060;15.064;2023-04-22T12:41:01;20.20;1.00
4795;DHT22;2411;47.060;15.064;2023-04-22T12:43:28;20.40;1.00
4795;DHT22;2411;47.060;15.064;2023-04-22T12:45:58;20.20;1.00
4795;DHT22;2411;47.060;15.064;2023-04-22T12:48:25;20.40;1.00
4795;DHT22;2411;47.060;15.064;2023-04-22T12:50:53;20.20;1.00
4795;DHT22;2411;47.060;15.064;2023-04-22T12:53:20;20.70;1.00
4795;DHT22;2411;47.060;15.064;2023-04-22T12:55:48;20.80;1.00
4795;DHT22;2411;47.060;15.064;2023-04-22T12:58:15;20.60;1.00
4795;DHT22;2411;47.060;15.064;2023-04-22T13:00:42;20.60;1.00
4795;DHT22;2411;47.060;15.064;2023-04-22T13:03:10;20.50;1.00
4795;DHT22;2411;47.060;15.064;2023-04-22T13:05:37;20.40;1.00
4795;DHT22;2411;47.060;15.064;2023-04-22T13:08:05;20.40;1.00
4795;DHT22;2411;47.060;15.064;2023-04-22T13:10:34;20.30;1.00
4795;DHT22;2411;47.060;15.064;2023-04-22T13:13:02;20.90;1.00
4795;DHT22;2411;47.060;15.064;2023-04-22T13:15:37;20.30;1.00
4795;DHT22;2411;47.060;15.064;2023-04-22T13:18:05;20.50;1.00
4795;DHT22;2411;47.060;15.064;2023-04-22T13:20:32;20.70;1.00
4795;DHT22;2411;47.060;15.064;2023-04-22T13:23:00;20.80;1.00
4795;DHT22;2411;47.060;15.064;2023-04-22T13:25:28;20.40;1.00
4795;DHT22;2411;47.060;15.064;2023-04-22T13:27:55;20.70;1.00
4795;DHT22;2411;47.060;15.064;2023-04-22T13:30:23;20.70;1.00
4795;DHT22;2411;47.060;15.064;2023-04-22T13:32:50;20.60;1.00
4795;DHT22;2411;47.060;15.064;2023-04-22T13:35:18;21.10;1.00
4795;DHT22;2411;47.060;15.064;2023-04-22T13:37:45;21.00;1.00
4795;DHT22;2411;47.060;15.064;2023-04-22T13:40:13;20.90;1.00
4795;DHT22;2411;47.060;15.064;2023-04-22T13:42:40;21.10;1.00
4795;DHT22;2411;47.060;15.064;2023-04-22T13:45:08;21.30;1.00
4795;DHT22;2411;47.060;15.064;2023-04-22T13:47:35;21.10;1.00
4795;DHT22;2411;47.060;15.064;2023-04-22T13:50:03;21.00;1.00
4795;DHT22;2411;47.060;15.064;2023-04-22T13:52:32;21.40;1.00
4795;DHT22;2411;47.060;15.064;2023-04-22T13:55:01;21.20;1.00
4795;DHT22;2411;47.060;15.064;2023-04-22T13:57:28;21.10;1.00
4795;DHT22;2411;47.060;15.064;2023-04-22T13:59:56;20.60;1.00
4795;DHT22;2411;47.060;15.064;2023-04-22T14:02:24;20.90;1.00
4795;DHT22;2411;47.060;15.064;2023-04-22T14:04:51;21.20;1.00
4795;DHT22;2411;47.060;15.064;2023-04-22T14:07:19;20.90;1.00
4795;DHT22;2411;47.060;15.064;2023-04-22T14:09:46;21.30;1.00
4795;DHT22;2411;47.060;15.064;2023-04-22T14:12:14;21.60;1.00
4795;DHT22;2411;47.060;15.064;2023-04-22T14:14:41;21.40;1.00
4795;DHT22;2411;47.060;15.064;2023-04-22T14:17:08;21.30;1.00
4795;DHT22;2411;47.060;15.064;2023-04-22T14:19:36;21.00;1.00
4795;DHT22;2411;47.060;15.064;2023-04-22T14:22:05;21.50;1.00
4795;DHT22;2411;47.060;15.064;2023-04-22T14:24:33;21.30;1.00
4795;DHT22;2411;47.060;15.064;2023-04-22T14:27:00;21.10;1.00
4795;DHT22;2411;47.060;15.064;2023-04-22T14:29:27;21.30;1.00
4795;DHT22;2411;47.060;15.064;2023-04-22T14:31:56;21.50;1.00
4795;DHT22;2411;47.060;15.064;2023-04-22T14:34:24;21.10;1.00
4795;DHT22;2411;47.060;15.064;2023-04-22T14:36:53;21.50;1.00
4795;DHT22;2411;47.060;15.064;2023-04-22T14:39:21;21.70;1.00
4795;DHT22;2411;47.060;15.064;2023-04-22T14:41:48;21.40;1.00
4795;DHT22;2411;47.060;15.064;2023-04-22T14:44:15;21.40;1.00
4795;DHT22;2411;47.060;15.064;2023-04-22T14:46:43;21.60;1.00
4795;DHT22;2411;47.060;15.064;2023-04-22T14:49:11;21.70;1.00
4795;DHT22;2411;47.060;15.064;2023-04-22T14:51:38;21.40;1.00
4795;DHT22;2411;47.060;15.064;2023-04-22T14:54:05;21.30;1.00
4795;DHT22;2411;47.060;15.064;2023-04-22T14:56:33;21.60;1.00
4795;DHT22;2411;47.060;15.064;2023-04-22T14:59:00;21.50;1.00
4795;DHT22;2411;47.060;15.064;2023-04-22T15:01:27;21.80;1.00
4795;DHT22;2411;47.060;15.064;2023-04-22T15:03:55;21.80;1.00
4795;DHT22;2411;47.060;15.064;2023-04-22T15:06:22;21.90;1.00
4795;DHT22;2411;47.060;15.064;2023-04-22T15:08:50;21.70;1.00
4795;DHT22;2411;47.060;15.064;2023-04-22T15:11:17;21.90;1.00
4795;DHT22;2411;47.060;15.064;2023-04-22T15:13:45;21.70;1.00
4795;DHT22;2411;47.060;15.064;2023-04-22T15:16:12;21.50;1.00
4795;DHT22;2411;47.060;15.064;2023-04-22T15:18:39;21.20;1.00
4795;DHT22;2411;47.060;15.064;2023-04-22T15:21:06;20.90;1.00
4795;DHT22;2411;47.060;15.064;2023-04-22T15:23:36;20.70;1.00
4795;DHT22;2411;47.060;15.064;2023-04-22T15:26:03;21.20;1.00
4795;DHT22;2411;47.060;15.064;2023-04-22T15:28:32;21.00;1.00
4795;DHT22;2411;47.060;15.064;2023-04-22T15:31:00;20.90;1.00
4795;DHT22;2411;47.060;15.064;2023-04-22T15:33:28;20.80;1.00
4795;DHT22;2411;47.060;15.064;2023-04-22T15:35:55;20.70;1.00
4795;DHT22;2411;47.060;15.064;2023-04-22T15:38:22;20.70;1.00
4795;DHT22;2411;47.060;15.064;2023-04-22T15:40:50;20.80;1.00
4795;DHT22;2411;47.060;15.064;2023-04-22T15:43:17;20.80;1.00
4795;DHT22;2411;47.060;15.064;2023-04-22T15:45:45;21.30;1.00
4795;DHT22;2411;47.060;15.064;2023-04-22T15:48:12;21.70;1.00
4795;DHT22;2411;47.060;15.064;2023-04-22T15:50:39;22.10;1.00
4795;DHT22;2411;47.060;15.064;2023-04-22T15:53:07;22.60;1.00
4795;DHT22;2411;47.060;15.064;2023-04-22T15:55:34;22.80;1.00
4795;DHT22;2411;47.060;15.064;2023-04-22T15:58:02;23.10;1.00
4795;DHT22;2411;47.060;15.064;2023-04-22T16:00:29;23.50;1.00
4795;DHT22;2411;47.060;15.064;2023-04-22T16:02:56;23.90;1.00
4795;DHT22;2411;47.060;15.064;2023-04-22T16:05:24;23.60;1.00
4795;DHT22;2411;47.060;15.064;2023-04-22T16:07:52;23.40;1.00
4795;DHT22;2411;47.060;15.064;2023-04-22T16:10:20;23.70;1.00
4795;DHT22;2411;47.060;15.064;2023-04-22T16:12:47;23.40;1.00
4795;DHT22;2411;47.060;15.064;2023-04-22T16:15:15;23.30;1.00
4795;DHT22;2411;47.060;15.064;2023-04-22T16:17:43;22.60;1.00
4795;DHT22;2411;47.060;15.064;2023-04-22T16:20:11;22.50;1.00
4795;DHT22;2411;47.060;15.064;2023-04-22T16:22:38;22.30;1.00
4795;DHT22;2411;47.060;15.064;2023-04-22T16:25:06;22.50;1.00
4795;DHT22;2411;47.060;15.064;2023-04-22T16:27:34;22.20;1.00
4795;DHT22;2411;47.060;15.064;2023-04-22T16:30:01;22.20;1.00
4795;DHT22;2411;47.060;15.064;2023-04-22T16:32:28;22.10;1.00
4795;DHT22;2411;47.060;15.064;2023-04-22T16:34:56;22.00;1.00
4795;DHT22;2411;47.060;15.064;2023-04-22T16:37:24;22.30;1.00
4795;DHT22;2411;47.060;15.064;2023-04-22T16:39:52;21.80;1.00
4795;DHT22;2411;47.060;15.064;2023-04-22T16:42:19;21.60;1.00
4795;DHT22;2411;47.060;15.064;2023-04-22T16:44:47;21.90;1.00
4795;DHT22;2411;47.060;15.064;2023-04-22T16:47:14;21.80;1.00
4795;DHT22;2411;47.060;15.064;2023-04-22T16:49:41;21.80;1.00